createdAt,value
2018-09-19T00:00:17.655Z,37.47
2018-09-19T00:02:46.653Z,38.80
2018-09-19T00:05:15.515Z,36.53
2018-09-19T00:07:44.456Z,35.20
2018-09-19T00:10:13.349Z,36.33
2018-09-19T00:12:42.294Z,36.40
2018-09-19T00:15:11.201Z,37.47
2018-09-19T00:17:40.080Z,35.97
2018-09-19T00:20:08.998Z,35.60
2018-09-19T00:22:37.913Z,38.03
2018-09-19T00:25:06.833Z,36.33
2018-09-19T00:27:35.736Z,36.50
2018-09-19T00:30:04.672Z,37.77
2018-09-19T00:32:33.549Z,35.83
2018-09-19T00:35:02.402Z,35.00
2018-09-19T00:37:31.345Z,35.50
2018-09-19T00:40:00.236Z,34.20
2018-09-19T00:42:29.140Z,36.20
2018-09-19T00:44:58.057Z,35.10
2018-09-19T00:47:31.331Z,35.57
2018-09-19T00:50:00.506Z,33.83
2018-09-19T00:52:29.432Z,33.97
2018-09-19T00:54:58.331Z,35.03
2018-09-19T00:57:27.249Z,35.07
2018-09-19T00:59:56.112Z,35.43
2018-09-19T01:02:24.992Z,35.47
2018-09-19T01:04:54.032Z,36.07
2018-09-19T01:07:22.883Z,35.53
2018-09-19T01:09:51.824Z,33.23
2018-09-19T01:12:20.841Z,35.27
2018-09-19T01:14:49.740Z,37.70
2018-09-19T01:17:18.595Z,37.73
2018-09-19T01:19:47.508Z,38.13
2018-09-19T01:22:16.381Z,37.13
2018-09-19T01:24:45.274Z,36.10
2018-09-19T01:27:14.217Z,38.77
2018-09-19T01:29:43.100Z,36.90
2018-09-19T01:32:11.947Z,36.53
2018-09-19T01:34:40.838Z,37.00
2018-09-19T01:37:09.720Z,38.07
2018-09-19T01:39:39.593Z,36.40
2018-09-19T01:42:08.552Z,36.13
2018-09-19T01:44:37.546Z,35.73
2018-09-19T01:47:06.481Z,39.30
2018-09-19T01:49:35.461Z,39.63
2018-09-19T01:52:04.323Z,37.30
2018-09-19T01:54:33.184Z,37.40
2018-09-19T01:57:02.147Z,37.07
2018-09-19T01:59:31.013Z,37.70
2018-09-19T02:01:59.866Z,36.83
2018-09-19T02:04:28.799Z,36.27
2018-09-19T02:06:57.710Z,35.00
2018-09-19T02:09:26.587Z,36.50
2018-09-19T02:11:55.477Z,36.03
2018-09-19T02:14:24.361Z,34.37
2018-09-19T02:16:53.257Z,34.57
2018-09-19T02:19:22.236Z,35.03
2018-09-19T02:21:51.166Z,34.77
2018-09-19T02:24:20.059Z,34.30
2018-09-19T02:26:48.997Z,33.73
2018-09-19T02:29:17.861Z,36.07
2018-09-19T02:31:46.768Z,33.97
2018-09-19T02:34:15.668Z,34.10
2018-09-19T02:36:46.344Z,35.50
2018-09-19T02:39:15.278Z,35.13
2018-09-19T02:41:44.133Z,33.97
2018-09-19T02:44:13.003Z,34.57
2018-09-19T02:46:41.941Z,34.20
2018-09-19T02:49:10.814Z,34.03
2018-09-19T02:51:39.677Z,33.93
2018-09-19T02:54:08.649Z,34.40
2018-09-19T02:56:37.609Z,33.33
2018-09-19T02:59:06.527Z,34.90
2018-09-19T03:01:35.449Z,36.70
2018-09-19T03:04:05.814Z,39.70
2018-09-19T03:06:34.659Z,39.00
2018-09-19T03:09:04.343Z,38.60
2018-09-19T03:11:33.212Z,34.87
2018-09-19T03:14:02.091Z,36.40
2018-09-19T03:16:31.024Z,36.77
2018-09-19T03:18:59.913Z,38.63
2018-09-19T03:21:28.792Z,41.20
2018-09-19T03:23:57.711Z,39.87
2018-09-19T03:26:27.216Z,38.27
2018-09-19T03:28:57.061Z,36.53
2018-09-19T03:31:26.220Z,39.23
2018-09-19T03:33:55.177Z,37.87
2018-09-19T03:36:24.057Z,39.53
2018-09-19T03:38:52.977Z,39.10
2018-09-19T03:41:21.828Z,37.83
2018-09-19T03:43:50.730Z,36.30
2018-09-19T03:46:19.650Z,36.57
2018-09-19T03:48:48.522Z,38.13
2018-09-19T03:51:17.410Z,37.23
2018-09-19T03:53:46.327Z,39.00
2018-09-19T03:56:15.196Z,37.93
2018-09-19T03:58:44.068Z,36.53
2018-09-19T04:01:13.000Z,38.53
2018-09-19T04:03:41.863Z,37.53
2018-09-19T04:06:10.757Z,36.97
2018-09-19T04:08:39.752Z,36.47
2018-09-19T04:11:08.648Z,37.70
2018-09-19T04:13:37.537Z,37.27
2018-09-19T04:16:06.568Z,36.93
2018-09-19T04:18:35.480Z,37.80
2018-09-19T04:21:04.532Z,38.13
2018-09-19T04:23:33.459Z,38.47
2018-09-19T04:26:02.352Z,39.03
2018-09-19T04:28:31.244Z,39.43
2018-09-19T04:31:00.238Z,36.40
2018-09-19T04:33:29.152Z,35.37
2018-09-19T04:35:58.122Z,35.40
2018-09-19T04:38:27.049Z,35.23
2018-09-19T04:40:55.966Z,34.73
2018-09-19T04:43:24.922Z,31.80
2018-09-19T04:45:53.888Z,32.43
2018-09-19T04:48:22.909Z,33.40
2018-09-19T04:50:51.761Z,31.97
2018-09-19T04:53:20.784Z,30.93
2018-09-19T04:55:49.718Z,30.37
2018-09-19T04:58:18.711Z,29.13
2018-09-19T05:00:47.822Z,30.50
2018-09-19T05:03:16.927Z,27.53
2018-09-19T05:05:46.041Z,26.90
2018-09-19T05:08:14.911Z,27.53
2018-09-19T05:10:44.714Z,28.07
2018-09-19T05:13:13.664Z,27.97
2018-09-19T05:15:42.529Z,26.10
2018-09-19T05:18:11.445Z,27.23
2018-09-19T05:20:40.390Z,25.43
2018-09-19T05:23:09.289Z,25.23
2018-09-19T05:25:38.168Z,22.87
2018-09-19T05:28:07.123Z,23.60
2018-09-19T05:30:36.024Z,23.10
2018-09-19T05:33:05.458Z,23.43
2018-09-19T05:35:34.455Z,22.03
2018-09-19T05:38:03.969Z,21.77
2018-09-19T05:40:32.940Z,22.73
2018-09-19T05:43:01.936Z,21.00
2018-09-19T05:45:30.823Z,21.53
2018-09-19T05:47:59.755Z,21.73
2018-09-19T05:50:28.660Z,21.40
2018-09-19T05:52:58.349Z,20.40
2018-09-19T05:55:27.428Z,21.40
2018-09-19T05:57:56.430Z,19.93
2018-09-19T06:00:25.350Z,20.23
2018-09-19T06:02:54.386Z,19.27
2018-09-19T06:05:23.500Z,19.67
2018-09-19T06:07:52.577Z,17.73
2018-09-19T06:10:21.610Z,19.27
2018-09-19T06:12:50.678Z,19.47
2018-09-19T06:15:19.574Z,17.70
2018-09-19T06:17:48.864Z,19.60
2018-09-19T06:20:17.799Z,18.43
2018-09-19T06:22:46.660Z,17.67
2018-09-19T06:25:16.071Z,17.20
2018-09-19T06:27:45.115Z,17.70
2018-09-19T06:30:16.204Z,16.53
2018-09-19T06:32:45.267Z,17.37
2018-09-19T06:35:14.738Z,16.87
2018-09-19T06:37:43.642Z,16.70
2018-09-19T06:40:12.563Z,15.50
2018-09-19T06:42:41.481Z,15.27
2018-09-19T06:45:10.383Z,15.90
2018-09-19T06:47:39.289Z,16.83
2018-09-19T06:50:08.377Z,15.70
2018-09-19T06:52:37.277Z,15.30
2018-09-19T06:55:06.269Z,15.17
2018-09-19T06:57:35.268Z,15.10
2018-09-19T07:00:04.252Z,14.10
2018-09-19T07:02:33.162Z,14.53
2018-09-19T07:05:02.189Z,14.00
2018-09-19T07:07:31.114Z,14.93
2018-09-19T07:10:00.075Z,14.00
2018-09-19T07:12:28.982Z,14.30
2018-09-19T07:14:57.900Z,14.03
2018-09-19T07:17:26.803Z,14.67
2018-09-19T07:19:55.720Z,14.97
2018-09-19T07:22:24.602Z,14.10
2018-09-19T07:24:56.417Z,13.10
2018-09-19T07:27:25.315Z,13.37
2018-09-19T07:29:54.234Z,12.90
2018-09-19T07:32:23.323Z,11.33
2018-09-19T07:34:52.160Z,12.37
2018-09-19T07:37:21.078Z,13.00
2018-09-19T07:45:46.250Z,12.50
2018-09-19T07:48:15.130Z,12.10
2018-09-19T07:50:44.081Z,13.03
2018-09-19T07:53:12.994Z,12.37
2018-09-19T07:55:41.886Z,12.20
2018-09-19T07:58:10.887Z,12.67
2018-09-19T08:00:40.037Z,11.17
2018-09-19T08:03:09.037Z,11.57
2018-09-19T08:05:37.952Z,11.83
2018-09-19T08:08:06.875Z,11.80
2018-09-19T08:10:35.749Z,11.60
2018-09-19T08:13:04.648Z,11.07
2018-09-19T08:15:33.565Z,11.10
2018-09-19T08:18:02.445Z,11.60
2018-09-19T08:20:31.378Z,10.77
2018-09-19T08:23:00.301Z,10.50
2018-09-19T08:25:29.202Z,11.17
2018-09-19T08:27:58.075Z,10.87
2018-09-19T08:30:27.043Z,10.07
2018-09-19T08:32:55.909Z,9.90
2018-09-19T08:35:24.766Z,9.67
2018-09-19T08:37:53.713Z,9.30
2018-09-19T08:40:22.574Z,9.70
2018-09-19T08:42:51.420Z,9.57
2018-09-19T08:45:20.591Z,9.50
2018-09-19T08:47:49.476Z,9.00
2018-09-19T08:50:18.373Z,8.50
2018-09-19T08:52:47.310Z,8.23
2018-09-19T08:55:16.165Z,8.80
2018-09-19T08:57:45.041Z,8.33
2018-09-19T09:00:13.945Z,8.60
2018-09-19T09:02:42.830Z,8.27
2018-09-19T09:05:12.187Z,8.03
2018-09-19T09:07:41.115Z,8.17
2018-09-19T09:10:10.010Z,7.23
2018-09-19T09:12:39.124Z,7.23
2018-09-19T09:15:08.204Z,7.50
2018-09-19T09:17:37.085Z,7.77
2018-09-19T09:20:06.107Z,7.43
2018-09-19T09:22:35.157Z,7.83
2018-09-19T09:25:04.080Z,7.10
2018-09-19T09:27:32.963Z,7.10
2018-09-19T09:30:02.380Z,6.53
2018-09-19T09:32:31.244Z,6.67
2018-09-19T09:35:00.154Z,7.00
2018-09-19T09:37:29.081Z,6.70
2018-09-19T09:39:57.990Z,7.00
2018-09-19T09:42:26.832Z,5.97
2018-09-19T09:44:55.753Z,7.00
2018-09-19T09:47:24.600Z,6.80
2018-09-19T09:49:53.537Z,6.73
2018-09-19T09:52:22.459Z,6.53
2018-09-19T09:54:51.317Z,5.77
2018-09-19T09:57:20.183Z,6.93
2018-09-19T09:59:49.100Z,7.07
2018-09-19T10:02:18.015Z,6.50
2018-09-19T10:04:46.884Z,6.07
2018-09-19T10:07:15.780Z,6.13
2018-09-19T10:09:44.657Z,6.00
2018-09-19T10:12:13.520Z,6.17
2018-09-19T10:14:42.497Z,6.00
2018-09-19T10:17:11.353Z,6.08
2018-09-19T10:19:40.208Z,5.67
2018-09-19T10:22:09.197Z,6.45
2018-09-19T10:24:38.171Z,6.60
2018-09-19T10:27:07.103Z,6.83
2018-09-19T10:29:36.031Z,6.17
2018-09-19T10:32:05.166Z,5.95
2018-09-19T10:34:34.015Z,6.20
2018-09-19T10:37:02.912Z,7.33
2018-09-19T10:39:31.813Z,6.40
2018-09-19T10:42:00.699Z,6.15
2018-09-19T10:44:29.611Z,6.15
2018-09-19T10:46:58.483Z,6.22
2018-09-19T10:49:27.463Z,6.12
2018-09-19T10:51:56.402Z,6.53
2018-09-19T10:54:25.333Z,6.15
2018-09-19T10:56:54.283Z,6.40
2018-09-19T10:59:23.213Z,6.28
2018-09-19T11:01:52.089Z,6.37
2018-09-19T11:04:20.935Z,5.95
2018-09-19T11:06:49.852Z,5.97
2018-09-19T11:09:18.710Z,6.60
2018-09-19T11:11:47.652Z,6.20
2018-09-19T11:14:16.559Z,6.15
2018-09-19T11:16:45.709Z,6.08
2018-09-19T11:19:14.585Z,6.00
2018-09-19T11:21:44.632Z,5.70
2018-09-19T11:24:13.953Z,6.33
2018-09-19T11:26:42.838Z,5.92
2018-09-19T11:29:11.824Z,5.67
2018-09-19T11:31:51.556Z,6.00
2018-09-19T11:34:21.745Z,6.45
2018-09-19T11:36:50.633Z,6.25
2018-09-19T11:39:19.511Z,6.10
2018-09-19T11:41:48.412Z,6.15
2018-09-19T11:44:17.314Z,6.50
2018-09-19T11:46:46.188Z,6.30
2018-09-19T11:49:15.183Z,5.95
2018-09-19T11:51:44.060Z,6.75
2018-09-19T11:54:12.965Z,6.85
2018-09-19T11:56:41.873Z,5.95
2018-09-19T11:59:10.831Z,6.45
2018-09-19T12:01:39.664Z,6.22
2018-09-19T12:04:09.131Z,7.05
2018-09-19T12:06:38.123Z,6.65
2018-09-19T12:09:10.847Z,6.42
2018-09-19T12:11:40.157Z,6.33
2018-09-19T12:14:09.108Z,7.03
2018-09-19T12:16:38.583Z,6.35
2018-09-19T12:19:08.326Z,6.45
2018-09-19T12:21:41.523Z,6.05
2018-09-19T12:24:10.591Z,6.28
2018-09-19T12:26:39.728Z,6.83
2018-09-19T12:29:08.657Z,6.00
2018-09-19T12:31:37.883Z,6.75
2018-09-19T12:34:07.456Z,6.17
2018-09-19T12:36:36.586Z,6.97
2018-09-19T12:39:08.289Z,6.35
2018-09-19T12:41:37.668Z,6.95
2018-09-19T12:44:07.817Z,6.25
2018-09-19T12:46:39.694Z,6.10
2018-09-19T12:49:09.501Z,6.60
2018-09-19T12:51:38.534Z,6.00
2018-09-19T12:54:07.682Z,5.80
2018-09-19T12:56:36.703Z,6.65
2018-09-19T12:59:05.929Z,5.97
2018-09-19T13:01:34.853Z,6.15
2018-09-19T13:04:03.849Z,6.37
2018-09-19T13:06:33.404Z,6.47
2018-09-19T13:09:02.324Z,6.15
2018-09-19T13:11:31.200Z,6.35
2018-09-19T13:14:00.327Z,6.05
2018-09-19T13:16:29.199Z,6.33
2018-09-19T13:18:58.100Z,6.03
2018-09-19T13:21:27.061Z,6.40
2018-09-19T13:23:55.977Z,5.80
2018-09-19T13:26:24.848Z,5.97
2018-09-19T13:28:53.762Z,6.05
2018-09-19T13:31:22.608Z,5.47
2018-09-19T13:33:51.574Z,5.65
2018-09-19T13:36:20.488Z,5.75
2018-09-19T13:38:49.386Z,5.97
2018-09-19T13:41:18.449Z,6.45
2018-09-19T13:43:47.324Z,6.92
2018-09-19T13:46:16.272Z,5.47
2018-09-19T13:48:48.372Z,6.72
2018-09-19T13:51:23.945Z,6.28
2018-09-19T13:53:53.070Z,5.92
2018-09-19T13:56:22.331Z,5.72
2018-09-19T13:58:51.270Z,6.37
2018-09-19T14:01:20.193Z,6.62
2018-09-19T14:03:49.085Z,6.25
2018-09-19T14:06:17.974Z,6.20
2018-09-19T14:08:47.056Z,6.08
2018-09-19T14:11:15.918Z,6.17
2018-09-19T14:13:45.363Z,5.85
2018-09-19T14:16:14.357Z,6.17
2018-09-19T14:18:43.384Z,6.17
2018-09-19T14:21:12.360Z,5.80
2018-09-19T14:23:41.583Z,6.25
2018-09-19T14:26:10.760Z,6.12
2018-09-19T14:28:39.809Z,6.10
2018-09-19T14:31:08.912Z,6.58
2018-09-19T14:33:37.934Z,5.67
2018-09-19T14:36:06.987Z,6.08
2018-09-19T14:38:36.706Z,5.90
2018-09-19T14:41:05.654Z,6.05
2018-09-19T14:43:34.534Z,6.55
2018-09-19T14:46:03.514Z,6.15
2018-09-19T14:48:32.491Z,6.65
2018-09-19T14:51:01.601Z,6.47
2018-09-19T14:53:30.757Z,6.00
2018-09-19T14:55:59.752Z,6.40
2018-09-19T14:58:30.583Z,6.28
2018-09-19T15:00:59.568Z,6.72
2018-09-19T15:03:30.093Z,6.17
2018-09-19T15:05:59.041Z,6.37
2018-09-19T15:08:28.096Z,6.65
2018-09-19T15:10:57.181Z,6.65
2018-09-19T15:13:26.158Z,6.40
2018-09-19T15:15:55.166Z,6.25
2018-09-19T15:18:24.179Z,6.37
2018-09-19T15:20:55.802Z,5.92
2018-09-19T15:23:26.199Z,6.55
2018-09-19T15:25:55.164Z,6.12
2018-09-19T15:28:24.245Z,6.50
2018-09-19T15:30:53.258Z,6.72
2018-09-19T15:33:22.120Z,6.30
2018-09-19T15:35:52.060Z,5.92
2018-09-19T15:38:20.935Z,6.50
2018-09-19T15:40:50.150Z,6.65
2018-09-19T15:43:20.312Z,6.85
2018-09-19T15:45:49.227Z,6.93
2018-09-19T15:48:19.328Z,6.87
2018-09-19T15:50:48.321Z,6.70
2018-09-19T15:53:17.290Z,6.23
2018-09-19T15:55:48.850Z,6.63
2018-09-19T15:58:18.274Z,6.97
2018-09-19T16:00:47.177Z,7.12
2018-09-19T16:03:17.775Z,6.77
2018-09-19T16:05:46.817Z,7.23
2018-09-19T16:08:15.660Z,7.00
2018-09-19T16:10:44.652Z,6.53
2018-09-19T16:13:13.527Z,6.83
2018-09-19T16:15:42.800Z,6.40
2018-09-19T16:18:11.743Z,6.90
2018-09-19T16:20:40.618Z,6.47
2018-09-19T16:23:09.484Z,6.93
2018-09-19T16:25:38.408Z,6.93
2018-09-19T16:28:07.259Z,7.50
2018-09-19T16:30:36.225Z,7.80
2018-09-19T16:33:05.206Z,8.10
2018-09-19T16:35:34.165Z,8.07
2018-09-19T16:38:03.040Z,8.00
2018-09-19T16:40:32.008Z,7.77
2018-09-19T16:43:00.848Z,7.70
2018-09-19T16:45:29.769Z,8.13
2018-09-19T16:47:58.679Z,9.57
2018-09-19T16:50:27.567Z,8.00
2018-09-19T16:52:56.487Z,8.20
2018-09-19T16:55:25.440Z,9.30
2018-09-19T16:57:54.376Z,9.13
2018-09-19T17:00:23.321Z,9.40
2018-09-19T17:02:52.286Z,9.67
2018-09-19T17:05:21.182Z,9.47
2018-09-19T17:07:50.074Z,10.30
2018-09-19T17:10:20.485Z,9.70
2018-09-19T17:12:49.529Z,10.63
2018-09-19T17:15:18.464Z,9.10
2018-09-19T17:17:47.365Z,9.97
2018-09-19T17:20:17.020Z,10.10
2018-09-19T17:22:46.340Z,10.73
2018-09-19T17:25:15.480Z,10.97
2018-09-19T17:27:44.448Z,10.90
2018-09-19T17:30:13.607Z,10.27
2018-09-19T17:32:42.641Z,10.80
2018-09-19T17:35:12.066Z,11.73
2018-09-19T17:37:41.027Z,11.10
2018-09-19T17:40:10.011Z,11.00
2018-09-19T17:42:38.880Z,11.43
2018-09-19T17:45:09.428Z,11.70
2018-09-19T17:47:38.501Z,12.10
2018-09-19T17:50:08.896Z,11.57
2018-09-19T17:52:38.028Z,10.63
2018-09-19T17:55:06.960Z,10.70
2018-09-19T17:57:36.050Z,11.60
2018-09-19T18:00:06.372Z,11.80
2018-09-19T18:02:36.401Z,11.70
2018-09-19T18:05:05.401Z,12.03
2018-09-19T18:07:34.412Z,12.13
2018-09-19T18:10:04.358Z,12.30
2018-09-19T18:12:33.505Z,11.73
2018-09-19T18:15:02.557Z,11.80
2018-09-19T18:17:31.464Z,12.40
2018-09-19T18:20:01.351Z,12.00
2018-09-19T18:22:30.395Z,13.53
2018-09-19T18:24:59.263Z,14.47
2018-09-19T18:27:28.220Z,13.93
2018-09-19T18:29:57.311Z,13.57
2018-09-19T18:32:26.259Z,13.40
2018-09-19T18:34:55.265Z,13.90
2018-09-19T18:37:24.249Z,13.40
2018-09-19T18:39:53.201Z,14.43
2018-09-19T18:42:22.072Z,14.73
2018-09-19T18:44:51.734Z,13.70
2018-09-19T18:47:20.651Z,16.37
2018-09-19T18:49:50.414Z,14.67
2018-09-19T18:52:19.389Z,13.73
2018-09-19T18:54:48.408Z,14.87
2018-09-19T18:57:17.589Z,15.17
2018-09-19T18:59:46.721Z,14.67
2018-09-19T19:02:15.755Z,16.93
2018-09-19T19:04:44.855Z,15.37
2018-09-19T19:07:13.855Z,15.90
2018-09-19T19:09:43.207Z,15.17
2018-09-19T19:12:12.223Z,14.97
2018-09-19T19:14:41.298Z,15.17
2018-09-19T19:17:10.394Z,15.30
2018-09-19T19:19:39.405Z,15.80
2018-09-19T19:22:08.342Z,16.20
2018-09-19T19:24:37.382Z,14.73
2018-09-19T19:27:06.388Z,14.87
2018-09-19T19:29:35.482Z,14.63
2018-09-19T19:32:04.589Z,15.67
2018-09-19T19:34:33.743Z,16.13
2018-09-19T19:37:02.846Z,16.40
2018-09-19T19:39:31.948Z,15.67
2018-09-19T19:42:00.993Z,15.17
2018-09-19T19:44:30.208Z,16.27
2018-09-19T19:46:59.299Z,17.20
2018-09-19T19:49:28.458Z,15.77
2018-09-19T19:51:57.724Z,17.07
2018-09-19T19:54:26.848Z,16.20
2018-09-19T19:56:56.246Z,15.50
2018-09-19T19:59:25.555Z,17.77
2018-09-19T20:01:54.851Z,18.07
2018-09-19T20:04:24.109Z,16.90
2018-09-19T20:06:53.392Z,18.30
2018-09-19T20:09:22.471Z,17.67
2018-09-19T20:11:51.550Z,18.93
2018-09-19T20:14:21.078Z,19.53
2018-09-19T20:16:57.165Z,20.00
2018-09-19T20:19:35.977Z,19.73
2018-09-19T20:22:15.523Z,19.73
2018-09-19T20:24:45.132Z,20.57
2018-09-19T20:27:14.454Z,19.33
2018-09-19T20:29:43.452Z,21.13
2018-09-19T20:32:12.689Z,19.47
2018-09-19T20:34:42.592Z,21.37
2018-09-19T20:37:17.281Z,19.63
2018-09-19T20:39:46.409Z,20.13
2018-09-19T20:42:15.416Z,20.87
2018-09-19T20:44:44.397Z,19.97
2018-09-19T20:47:13.484Z,19.70
2018-09-19T20:49:42.505Z,19.87
2018-09-19T20:52:11.687Z,20.47
2018-09-19T20:54:40.913Z,19.97
2018-09-19T20:57:11.127Z,20.17
2018-09-19T20:59:40.110Z,20.33
2018-09-19T21:02:09.162Z,21.23
2018-09-19T21:04:39.437Z,20.67
2018-09-19T21:07:08.788Z,21.17
2018-09-19T21:09:38.097Z,19.90
2018-09-19T21:12:07.202Z,21.73
2018-09-19T21:14:36.495Z,19.67
2018-09-19T21:17:05.526Z,21.03
2018-09-19T21:19:34.797Z,21.07
2018-09-19T21:22:05.319Z,20.40
2018-09-19T21:24:38.325Z,20.87
2018-09-19T21:27:07.691Z,21.50
2018-09-19T21:29:36.763Z,21.97
2018-09-19T21:32:06.019Z,22.00
2018-09-19T21:34:34.962Z,21.70
2018-09-19T21:37:04.045Z,21.43
2018-09-19T21:39:33.201Z,22.93
2018-09-19T21:42:02.172Z,24.13
2018-09-19T21:44:31.071Z,23.57
2018-09-19T21:47:00.144Z,21.43
2018-09-19T21:49:29.212Z,22.60
2018-09-19T21:51:58.161Z,22.33
2018-09-19T21:54:27.108Z,22.33
2018-09-19T21:56:56.116Z,22.83
2018-09-19T21:59:25.046Z,22.73
2018-09-19T22:01:58.108Z,23.07
2018-09-19T22:04:27.171Z,22.37
2018-09-19T22:06:56.096Z,23.63
2018-09-19T22:09:25.037Z,22.93
2018-09-19T22:11:53.975Z,23.00
2018-09-19T22:14:22.863Z,23.10
2018-09-19T22:16:51.830Z,23.53
2018-09-19T22:19:20.751Z,23.70
2018-09-19T22:21:49.684Z,23.97
2018-09-19T22:24:18.652Z,23.67
2018-09-19T22:26:47.578Z,22.63
2018-09-19T22:29:16.469Z,23.57
2018-09-19T22:31:45.431Z,23.33
2018-09-19T22:34:14.308Z,24.20
2018-09-19T22:36:43.216Z,23.03
2018-09-19T22:39:12.188Z,23.47
2018-09-19T22:41:41.147Z,25.13
2018-09-19T22:44:10.012Z,23.73
2018-09-19T22:46:39.712Z,24.57
2018-09-19T22:49:08.664Z,22.97
2018-09-19T22:51:37.583Z,23.10
2018-09-19T22:54:06.732Z,23.67
2018-09-19T22:56:35.660Z,23.80
2018-09-19T22:59:04.581Z,23.87
2018-09-19T23:01:33.541Z,24.57
2018-09-19T23:04:02.534Z,23.13
2018-09-19T23:06:31.424Z,23.87
2018-09-19T23:09:00.352Z,25.07
2018-09-19T23:11:29.243Z,23.40
2018-09-19T23:13:58.117Z,22.80
2018-09-19T23:16:27.109Z,23.43
2018-09-19T23:18:55.994Z,22.90
2018-09-19T23:21:24.856Z,22.83
2018-09-19T23:23:53.837Z,24.43
2018-09-19T23:26:22.717Z,23.70
2018-09-19T23:28:51.584Z,24.33
2018-09-19T23:31:20.504Z,23.23
2018-09-19T23:33:49.462Z,24.97
2018-09-19T23:36:18.375Z,25.83
2018-09-19T23:38:47.521Z,24.33
2018-09-19T23:41:16.429Z,25.40
2018-09-19T23:43:45.421Z,25.10
2018-09-19T23:46:14.386Z,24.53
2018-09-19T23:48:43.285Z,24.00
2018-09-19T23:51:12.160Z,24.47
2018-09-19T23:53:41.084Z,23.97
2018-09-19T23:56:09.952Z,24.20
2018-09-19T23:58:38.839Z,24.17
